sensor_id;sensor_type;location;lat;lon;timestamp;temperature;humidity
12926;DHT22;6529;50.566;9.774;2023-02-28T00:01:37;-0.50;99.90
12926;DHT22;6529;50.566;9.774;2023-02-28T00:04:03;-0.50;99.90
12926;DHT22;6529;50.566;9.774;2023-02-28T00:06:28;-0.50;99.90
12926;DHT22;6529;50.566;9.774;2023-02-28T00:08:54;-0.40;99.90
12926;DHT22;6529;50.566;9.774;2023-02-28T00:11:20;-0.40;99.90
12926;DHT22;6529;50.566;9.774;2023-02-28T00:13:47;-0.50;99.90
12926;DHT22;6529;50.566;9.774;2023-02-28T00:16:21;-0.50;99.90
12926;DHT22;6529;50.566;9.774;2023-02-28T00:18:47;-0.40;99.90
12926;DHT22;6529;50.566;9.774;2023-02-28T00:21:13;-0.40;99.90
12926;DHT22;6529;50.566;9.774;2023-02-28T00:23:39;-0.40;99.90
12926;DHT22;6529;50.566;9.774;2023-02-28T00:26:05;-0.40;99.90
12926;DHT22;6529;50.566;9.774;2023-02-28T00:28:30;-0.50;99.90
12926;DHT22;6529;50.566;9.774;2023-02-28T00:30:56;-0.50;99.90
12926;DHT22;6529;50.566;9.774;2023-02-28T00:33:22;-0.50;99.90
12926;DHT22;6529;50.566;9.774;2023-02-28T00:35:48;-0.50;99.90
12926;DHT22;6529;50.566;9.774;2023-02-28T00:38:15;-0.50;99.90
12926;DHT22;6529;50.566;9.774;2023-02-28T00:40:40;-0.40;99.90
12926;DHT22;6529;50.566;9.774;2023-02-28T00:43:06;-0.50;99.90
12926;DHT22;6529;50.566;9.774;2023-02-28T00:45:31;-0.60;99.90
12926;DHT22;6529;50.566;9.774;2023-02-28T00:47:57;-0.70;99.90
12926;DHT22;6529;50.566;9.774;2023-02-28T00:50:22;-0.70;99.90
12926;DHT22;6529;50.566;9.774;2023-02-28T00:52:48;-0.70;99.90
12926;DHT22;6529;50.566;9.774;2023-02-28T00:55:14;-0.80;99.90
12926;DHT22;6529;50.566;9.774;2023-02-28T00:57:40;-1.00;99.90
12926;DHT22;6529;50.566;9.774;2023-02-28T01:00:06;-0.90;99.90
12926;DHT22;6529;50.566;9.774;2023-02-28T01:02:32;-0.90;99.90
12926;DHT22;6529;50.566;9.774;2023-02-28T01:04:58;-1.00;99.90
12926;DHT22;6529;50.566;9.774;2023-02-28T01:07:23;-1.00;99.90
12926;DHT22;6529;50.566;9.774;2023-02-28T01:09:49;-1.00;99.90
12926;DHT22;6529;50.566;9.774;2023-02-28T01:12:15;-1.00;99.90
12926;DHT22;6529;50.566;9.774;2023-02-28T01:14:41;-0.90;99.90
12926;DHT22;6529;50.566;9.774;2023-02-28T01:17:07;-0.90;99.90
12926;DHT22;6529;50.566;9.774;2023-02-28T01:19:33;-1.00;99.90
12926;DHT22;6529;50.566;9.774;2023-02-28T01:22:01;-1.00;99.90
12926;DHT22;6529;50.566;9.774;2023-02-28T01:24:27;-1.10;99.90
12926;DHT22;6529;50.566;9.774;2023-02-28T01:26:53;-1.10;99.90
12926;DHT22;6529;50.566;9.774;2023-02-28T01:29:19;-1.10;99.90
12926;DHT22;6529;50.566;9.774;2023-02-28T01:31:44;-1.10;99.90
12926;DHT22;6529;50.566;9.774;2023-02-28T01:34:10;-1.20;99.90
12926;DHT22;6529;50.566;9.774;2023-02-28T01:36:35;-1.20;99.90
12926;DHT22;6529;50.566;9.774;2023-02-28T01:39:02;-1.30;99.90
12926;DHT22;6529;50.566;9.774;2023-02-28T01:41:31;-1.40;99.90
12926;DHT22;6529;50.566;9.774;2023-02-28T01:47:00;-1.50;99.90
12926;DHT22;6529;50.566;9.774;2023-02-28T01:49:25;-1.50;99.90
12926;DHT22;6529;50.566;9.774;2023-02-28T01:51:54;-1.50;99.90
12926;DHT22;6529;50.566;9.774;2023-02-28T01:54:33;-1.50;99.90
12926;DHT22;6529;50.566;9.774;2023-02-28T01:57:05;-1.60;99.90
12926;DHT22;6529;50.566;9.774;2023-02-28T02:02:02;-1.60;99.90
12926;DHT22;6529;50.566;9.774;2023-02-28T02:04:34;-1.60;99.90
12926;DHT22;6529;50.566;9.774;2023-02-28T02:07:01;-1.50;99.90
12926;DHT22;6529;50.566;9.774;2023-02-28T02:09:27;-1.50;99.90
12926;DHT22;6529;50.566;9.774;2023-02-28T02:11:55;-1.60;99.90
12926;DHT22;6529;50.566;9.774;2023-02-28T02:14:53;-1.50;99.90
12926;DHT22;6529;50.566;9.774;2023-02-28T02:25:25;-1.50;99.90
12926;DHT22;6529;50.566;9.774;2023-02-28T02:28:05;-1.50;99.90
12926;DHT22;6529;50.566;9.774;2023-02-28T02:33:45;-1.50;99.90
12926;DHT22;6529;50.566;9.774;2023-02-28T02:39:05;-1.50;99.90
12926;DHT22;6529;50.566;9.774;2023-02-28T02:41:35;-1.50;99.90
12926;DHT22;6529;50.566;9.774;2023-02-28T02:44:25;-1.40;99.90
12926;DHT22;6529;50.566;9.774;2023-02-28T02:47:01;-1.40;99.90
12926;DHT22;6529;50.566;9.774;2023-02-28T02:49:31;-1.30;99.90
12926;DHT22;6529;50.566;9.774;2023-02-28T02:52:02;-1.30;99.90
12926;DHT22;6529;50.566;9.774;2023-02-28T02:54:31;-1.30;99.90
12926;DHT22;6529;50.566;9.774;2023-02-28T02:57:03;-1.30;99.90
12926;DHT22;6529;50.566;9.774;2023-02-28T02:59:30;-1.20;99.90
12926;DHT22;6529;50.566;9.774;2023-02-28T03:01:59;-1.10;99.90
12926;DHT22;6529;50.566;9.774;2023-02-28T03:04:30;-1.10;99.90
12926;DHT22;6529;50.566;9.774;2023-02-28T03:06:56;-1.20;99.90
12926;DHT22;6529;50.566;9.774;2023-02-28T03:09:23;-1.10;99.90
12926;DHT22;6529;50.566;9.774;2023-02-28T03:11:49;-1.20;99.90
12926;DHT22;6529;50.566;9.774;2023-02-28T03:14:37;-1.20;99.90
12926;DHT22;6529;50.566;9.774;2023-02-28T03:22:36;-1.10;99.90
12926;DHT22;6529;50.566;9.774;2023-02-28T03:25:09;-1.10;99.90
12926;DHT22;6529;50.566;9.774;2023-02-28T03:30:30;-1.10;99.90
12926;DHT22;6529;50.566;9.774;2023-02-28T03:33:06;-1.10;99.90
12926;DHT22;6529;50.566;9.774;2023-02-28T03:35:36;-1.10;99.90
12926;DHT22;6529;50.566;9.774;2023-02-28T03:40:44;-1.10;99.90
12926;DHT22;6529;50.566;9.774;2023-02-28T03:43:16;-1.10;99.90
12926;DHT22;6529;50.566;9.774;2023-02-28T03:45:44;-1.20;99.90
12926;DHT22;6529;50.566;9.774;2023-02-28T03:48:24;-1.20;99.90
12926;DHT22;6529;50.566;9.774;2023-02-28T03:50:55;-1.20;99.90
12926;DHT22;6529;50.566;9.774;2023-02-28T03:53:34;-1.20;99.90
12926;DHT22;6529;50.566;9.774;2023-02-28T03:56:14;-1.10;99.90
12926;DHT22;6529;50.566;9.774;2023-02-28T03:59:10;-1.10;99.90
12926;DHT22;6529;50.566;9.774;2023-02-28T04:01:41;-1.10;99.90
12926;DHT22;6529;50.566;9.774;2023-02-28T04:04:09;-1.10;99.90
12926;DHT22;6529;50.566;9.774;2023-02-28T04:06:35;-1.10;99.90
12926;DHT22;6529;50.566;9.774;2023-02-28T04:09:02;-1.10;99.90
12926;DHT22;6529;50.566;9.774;2023-02-28T04:11:40;-1.20;99.90
12926;DHT22;6529;50.566;9.774;2023-02-28T04:14:08;-1.10;99.90
12926;DHT22;6529;50.566;9.774;2023-02-28T04:16:35;-1.20;99.90
12926;DHT22;6529;50.566;9.774;2023-02-28T04:19:05;-1.20;99.90
12926;DHT22;6529;50.566;9.774;2023-02-28T04:21:39;-1.20;99.90
12926;DHT22;6529;50.566;9.774;2023-02-28T04:24:05;-1.20;99.90
12926;DHT22;6529;50.566;9.774;2023-02-28T04:26:32;-1.30;99.90
12926;DHT22;6529;50.566;9.774;2023-02-28T04:28:59;-1.20;99.90
12926;DHT22;6529;50.566;9.774;2023-02-28T04:31:25;-1.30;99.90
12926;DHT22;6529;50.566;9.774;2023-02-28T04:33:50;-1.30;99.90
12926;DHT22;6529;50.566;9.774;2023-02-28T04:36:16;-1.20;99.90
12926;DHT22;6529;50.566;9.774;2023-02-28T04:38:43;-1.20;99.90
12926;DHT22;6529;50.566;9.774;2023-02-28T04:41:09;-1.20;99.90
12926;DHT22;6529;50.566;9.774;2023-02-28T04:43:35;-1.20;99.90
12926;DHT22;6529;50.566;9.774;2023-02-28T04:46:03;-1.20;99.90
12926;DHT22;6529;50.566;9.774;2023-02-28T04:48:30;-1.20;99.90
12926;DHT22;6529;50.566;9.774;2023-02-28T04:51:04;-1.10;99.90
12926;DHT22;6529;50.566;9.774;2023-02-28T04:53:29;-1.20;99.90
12926;DHT22;6529;50.566;9.774;2023-02-28T04:55:56;-1.20;99.90
12926;DHT22;6529;50.566;9.774;2023-02-28T04:58:22;-1.20;99.90
12926;DHT22;6529;50.566;9.774;2023-02-28T05:00:49;-1.10;99.90
12926;DHT22;6529;50.566;9.774;2023-02-28T05:03:15;-1.20;99.90
12926;DHT22;6529;50.566;9.774;2023-02-28T05:05:40;-1.10;99.90
12926;DHT22;6529;50.566;9.774;2023-02-28T05:08:06;-1.20;99.90
12926;DHT22;6529;50.566;9.774;2023-02-28T05:10:32;-1.10;99.90
12926;DHT22;6529;50.566;9.774;2023-02-28T05:12:58;-1.10;99.90
12926;DHT22;6529;50.566;9.774;2023-02-28T05:15:23;-1.20;99.90
12926;DHT22;6529;50.566;9.774;2023-02-28T05:17:49;-1.20;99.90
12926;DHT22;6529;50.566;9.774;2023-02-28T05:20:14;-1.20;99.90
12926;DHT22;6529;50.566;9.774;2023-02-28T05:22:41;-1.30;99.90
12926;DHT22;6529;50.566;9.774;2023-02-28T05:25:12;-1.30;99.90
12926;DHT22;6529;50.566;9.774;2023-02-28T05:27:38;-1.30;99.90
12926;DHT22;6529;50.566;9.774;2023-02-28T05:30:05;-1.30;99.90
12926;DHT22;6529;50.566;9.774;2023-02-28T05:32:31;-1.30;99.90
12926;DHT22;6529;50.566;9.774;2023-02-28T05:34:57;-1.40;99.90
12926;DHT22;6529;50.566;9.774;2023-02-28T05:37:22;-1.40;99.90
12926;DHT22;6529;50.566;9.774;2023-02-28T05:39:48;-1.40;99.90
12926;DHT22;6529;50.566;9.774;2023-02-28T05:42:13;-1.50;99.90
12926;DHT22;6529;50.566;9.774;2023-02-28T05:44:39;-1.50;99.90
12926;DHT22;6529;50.566;9.774;2023-02-28T05:47:04;-1.50;99.90
12926;DHT22;6529;50.566;9.774;2023-02-28T05:49:30;-1.50;99.90
12926;DHT22;6529;50.566;9.774;2023-02-28T05:51:55;-1.60;99.90
12926;DHT22;6529;50.566;9.774;2023-02-28T05:54:21;-1.20;99.90
12926;DHT22;6529;50.566;9.774;2023-02-28T05:56:46;0.10;99.90
12926;DHT22;6529;50.566;9.774;2023-02-28T05:59:13;1.00;99.90
12926;DHT22;6529;50.566;9.774;2023-02-28T06:01:41;1.60;99.90
12926;DHT22;6529;50.566;9.774;2023-02-28T06:04:09;1.90;99.90
12926;DHT22;6529;50.566;9.774;2023-02-28T06:06:36;1.80;99.90
12926;DHT22;6529;50.566;9.774;2023-02-28T06:09:05;0.70;99.90
12926;DHT22;6529;50.566;9.774;2023-02-28T06:11:31;0.00;99.90
12926;DHT22;6529;50.566;9.774;2023-02-28T06:13:58;-0.40;99.90
12926;DHT22;6529;50.566;9.774;2023-02-28T06:16:26;-0.90;99.90
12926;DHT22;6529;50.566;9.774;2023-02-28T06:18:52;-1.10;99.90
12926;DHT22;6529;50.566;9.774;2023-02-28T06:21:21;-1.20;99.90
12926;DHT22;6529;50.566;9.774;2023-02-28T06:23:47;-1.30;99.90
12926;DHT22;6529;50.566;9.774;2023-02-28T06:26:13;-1.30;99.90
12926;DHT22;6529;50.566;9.774;2023-02-28T06:28:38;-1.40;99.90
12926;DHT22;6529;50.566;9.774;2023-02-28T06:31:09;-1.50;99.90
12926;DHT22;6529;50.566;9.774;2023-02-28T06:33:37;-1.60;99.90
12926;DHT22;6529;50.566;9.774;2023-02-28T06:36:03;-1.70;99.90
12926;DHT22;6529;50.566;9.774;2023-02-28T06:38:29;-1.70;99.90
12926;DHT22;6529;50.566;9.774;2023-02-28T06:40:56;-1.80;99.90
12926;DHT22;6529;50.566;9.774;2023-02-28T06:43:24;-1.80;99.90
12926;DHT22;6529;50.566;9.774;2023-02-28T06:45:50;-1.80;99.90
12926;DHT22;6529;50.566;9.774;2023-02-28T06:48:16;-1.80;99.90
12926;DHT22;6529;50.566;9.774;2023-02-28T06:50:41;-1.90;99.90
12926;DHT22;6529;50.566;9.774;2023-02-28T06:53:07;-1.90;99.90
12926;DHT22;6529;50.566;9.774;2023-02-28T06:55:32;-2.00;99.90
12926;DHT22;6529;50.566;9.774;2023-02-28T06:57:58;-2.00;99.90
12926;DHT22;6529;50.566;9.774;2023-02-28T07:00:24;-2.00;99.90
12926;DHT22;6529;50.566;9.774;2023-02-28T07:02:50;-2.00;99.90
12926;DHT22;6529;50.566;9.774;2023-02-28T07:05:16;-1.90;99.90
12926;DHT22;6529;50.566;9.774;2023-02-28T07:07:41;-1.90;99.90
12926;DHT22;6529;50.566;9.774;2023-02-28T07:10:12;-1.80;99.90
12926;DHT22;6529;50.566;9.774;2023-02-28T07:12:42;-1.70;99.90
12926;DHT22;6529;50.566;9.774;2023-02-28T07:15:09;-1.70;99.90
12926;DHT22;6529;50.566;9.774;2023-02-28T07:17:34;-1.70;99.90
12926;DHT22;6529;50.566;9.774;2023-02-28T07:20:00;-1.60;99.90
12926;DHT22;6529;50.566;9.774;2023-02-28T07:22:25;-1.50;99.90
12926;DHT22;6529;50.566;9.774;2023-02-28T07:24:51;-1.50;99.90
12926;DHT22;6529;50.566;9.774;2023-02-28T07:27:17;-1.40;99.90
12926;DHT22;6529;50.566;9.774;2023-02-28T07:29:49;-1.30;99.90
12926;DHT22;6529;50.566;9.774;2023-02-28T07:32:15;-1.30;99.90
12926;DHT22;6529;50.566;9.774;2023-02-28T07:34:41;-1.30;99.90
12926;DHT22;6529;50.566;9.774;2023-02-28T07:37:06;-1.20;99.90
12926;DHT22;6529;50.566;9.774;2023-02-28T07:39:32;-1.10;99.90
12926;DHT22;6529;50.566;9.774;2023-02-28T07:41:58;-1.10;99.90
12926;DHT22;6529;50.566;9.774;2023-02-28T07:44:25;-1.00;99.90
12926;DHT22;6529;50.566;9.774;2023-02-28T07:46:51;-1.00;99.90
12926;DHT22;6529;50.566;9.774;2023-02-28T07:49:16;-0.90;99.90
12926;DHT22;6529;50.566;9.774;2023-02-28T07:51:42;-0.80;99.90
12926;DHT22;6529;50.566;9.774;2023-02-28T07:54:07;-0.80;99.90
12926;DHT22;6529;50.566;9.774;2023-02-28T07:56:33;-0.60;99.90
12926;DHT22;6529;50.566;9.774;2023-02-28T07:58:58;-0.60;99.90
12926;DHT22;6529;50.566;9.774;2023-02-28T08:01:24;-0.50;99.90
12926;DHT22;6529;50.566;9.774;2023-02-28T08:03:50;-0.50;99.90
12926;DHT22;6529;50.566;9.774;2023-02-28T08:06:21;-0.40;99.90
12926;DHT22;6529;50.566;9.774;2023-02-28T08:08:47;-0.40;99.90
12926;DHT22;6529;50.566;9.774;2023-02-28T08:11:13;-0.30;99.90
12926;DHT22;6529;50.566;9.774;2023-02-28T08:13:39;-0.20;99.90
12926;DHT22;6529;50.566;9.774;2023-02-28T08:16:05;-0.10;99.90
12926;DHT22;6529;50.566;9.774;2023-02-28T08:18:32;0.00;99.90
12926;DHT22;6529;50.566;9.774;2023-02-28T08:20:57;0.00;99.90
12926;DHT22;6529;50.566;9.774;2023-02-28T08:23:24;0.00;99.90
12926;DHT22;6529;50.566;9.774;2023-02-28T08:25:54;0.10;99.90
12926;DHT22;6529;50.566;9.774;2023-02-28T08:28:20;0.20;99.90
12926;DHT22;6529;50.566;9.774;2023-02-28T08:30:45;0.30;99.90
12926;DHT22;6529;50.566;9.774;2023-02-28T08:33:11;0.40;99.90
12926;DHT22;6529;50.566;9.774;2023-02-28T08:35:36;0.40;99.90
12926;DHT22;6529;50.566;9.774;2023-02-28T08:38:02;0.50;99.90
12926;DHT22;6529;50.566;9.774;2023-02-28T08:40:28;0.50;99.90
12926;DHT22;6529;50.566;9.774;2023-02-28T08:42:53;0.60;99.90
12926;DHT22;6529;50.566;9.774;2023-02-28T08:45:19;0.70;99.40
12926;DHT22;6529;50.566;9.774;2023-02-28T08:47:44;0.80;98.90
12926;DHT22;6529;50.566;9.774;2023-02-28T08:50:10;0.70;99.00
12926;DHT22;6529;50.566;9.774;2023-02-28T08:52:36;0.80;99.90
12926;DHT22;6529;50.566;9.774;2023-02-28T08:55:01;0.90;99.90
12926;DHT22;6529;50.566;9.774;2023-02-28T08:57:27;1.00;98.40
12926;DHT22;6529;50.566;9.774;2023-02-28T08:59:52;1.20;95.60
12926;DHT22;6529;50.566;9.774;2023-02-28T09:02:18;1.40;96.60
12926;DHT22;6529;50.566;9.774;2023-02-28T09:04:44;1.60;96.60
12926;DHT22;6529;50.566;9.774;2023-02-28T09:07:12;1.70;96.80
12926;DHT22;6529;50.566;9.774;2023-02-28T09:09:38;1.80;91.00
12926;DHT22;6529;50.566;9.774;2023-02-28T09:12:22;1.90;92.30
12926;DHT22;6529;50.566;9.774;2023-02-28T09:14:47;2.00;91.90
12926;DHT22;6529;50.566;9.774;2023-02-28T09:17:13;2.10;91.70
12926;DHT22;6529;50.566;9.774;2023-02-28T09:19:38;2.10;90.90
12926;DHT22;6529;50.566;9.774;2023-02-28T09:22:04;2.10;88.30
12926;DHT22;6529;50.566;9.774;2023-02-28T09:24:29;2.00;88.20
12926;DHT22;6529;50.566;9.774;2023-02-28T09:26:57;2.10;87.70
12926;DHT22;6529;50.566;9.774;2023-02-28T09:29:22;2.10;85.50
12926;DHT22;6529;50.566;9.774;2023-02-28T09:31:48;2.10;87.00
12926;DHT22;6529;50.566;9.774;2023-02-28T09:34:13;2.00;83.50
12926;DHT22;6529;50.566;9.774;2023-02-28T09:36:39;1.80;88.80
12926;DHT22;6529;50.566;9.774;2023-02-28T09:39:05;1.80;88.10
12926;DHT22;6529;50.566;9.774;2023-02-28T09:41:46;1.70;86.80
12926;DHT22;6529;50.566;9.774;2023-02-28T09:47:00;1.70;87.20
12926;DHT22;6529;50.566;9.774;2023-02-28T09:49:53;1.60;88.70
12926;DHT22;6529;50.566;9.774;2023-02-28T09:52:21;1.50;90.90
12926;DHT22;6529;50.566;9.774;2023-02-28T09:54:48;1.50;90.00
12926;DHT22;6529;50.566;9.774;2023-02-28T09:57:37;1.50;91.30
12926;DHT22;6529;50.566;9.774;2023-02-28T10:05:14;1.70;87.80
12926;DHT22;6529;50.566;9.774;2023-02-28T10:07:59;1.90;89.60
12926;DHT22;6529;50.566;9.774;2023-02-28T10:10:32;1.90;86.60
12926;DHT22;6529;50.566;9.774;2023-02-28T10:13:01;1.80;90.20
12926;DHT22;6529;50.566;9.774;2023-02-28T10:15:31;1.90;90.60
12926;DHT22;6529;50.566;9.774;2023-02-28T10:18:04;1.90;87.10
12926;DHT22;6529;50.566;9.774;2023-02-28T10:20:33;2.00;83.60
12926;DHT22;6529;50.566;9.774;2023-02-28T10:23:26;2.00;83.00
12926;DHT22;6529;50.566;9.774;2023-02-28T10:25:58;1.90;83.40
12926;DHT22;6529;50.566;9.774;2023-02-28T10:28:26;2.00;84.40
12926;DHT22;6529;50.566;9.774;2023-02-28T10:30:54;2.00;87.30
12926;DHT22;6529;50.566;9.774;2023-02-28T10:33:38;2.10;88.20
12926;DHT22;6529;50.566;9.774;2023-02-28T10:36:04;2.00;83.30
12926;DHT22;6529;50.566;9.774;2023-02-28T10:38:33;1.90;82.60
12926;DHT22;6529;50.566;9.774;2023-02-28T10:44:20;1.80;88.70
12926;DHT22;6529;50.566;9.774;2023-02-28T10:46:46;1.90;88.00
12926;DHT22;6529;50.566;9.774;2023-02-28T10:49:22;1.70;83.70
12926;DHT22;6529;50.566;9.774;2023-02-28T10:51:57;1.80;90.80
12926;DHT22;6529;50.566;9.774;2023-02-28T10:54:32;2.00;89.70
12926;DHT22;6529;50.566;9.774;2023-02-28T10:57:20;2.00;89.70
12926;DHT22;6529;50.566;9.774;2023-02-28T10:59:51;1.90;90.60
12926;DHT22;6529;50.566;9.774;2023-02-28T11:04:58;2.00;89.60
12926;DHT22;6529;50.566;9.774;2023-02-28T11:07:25;2.00;86.10
12926;DHT22;6529;50.566;9.774;2023-02-28T11:09:52;2.20;93.30
12926;DHT22;6529;50.566;9.774;2023-02-28T11:12:30;3.30;99.90
12926;DHT22;6529;50.566;9.774;2023-02-28T11:15:23;4.40;99.90
12926;DHT22;6529;50.566;9.774;2023-02-28T11:17:59;3.90;78.00
12926;DHT22;6529;50.566;9.774;2023-02-28T11:20:31;3.90;82.00
12926;DHT22;6529;50.566;9.774;2023-02-28T11:22:58;4.80;91.80
12926;DHT22;6529;50.566;9.774;2023-02-28T11:25:32;4.60;77.90
12926;DHT22;6529;50.566;9.774;2023-02-28T11:28:23;4.90;99.90
12926;DHT22;6529;50.566;9.774;2023-02-28T11:36:22;5.10;65.50
12926;DHT22;6529;50.566;9.774;2023-02-28T11:38:54;5.30;86.60
12926;DHT22;6529;50.566;9.774;2023-02-28T11:46:44;5.70;55.50
12926;DHT22;6529;50.566;9.774;2023-02-28T12:02:30;4.20;70.60
12926;DHT22;6529;50.566;9.774;2023-02-28T12:07:50;4.90;70.40
12926;DHT22;6529;50.566;9.774;2023-02-28T12:13:26;5.10;70.20
12926;DHT22;6529;50.566;9.774;2023-02-28T12:16:20;5.00;56.70
12926;DHT22;6529;50.566;9.774;2023-02-28T12:26:52;6.30;92.40
12926;DHT22;6529;50.566;9.774;2023-02-28T12:29:43;6.70;50.70
12926;DHT22;6529;50.566;9.774;2023-02-28T12:32:31;6.40;54.50
12926;DHT22;6529;50.566;9.774;2023-02-28T12:37:41;6.60;42.70
12926;DHT22;6529;50.566;9.774;2023-02-28T12:42:41;7.10;37.80
12926;DHT22;6529;50.566;9.774;2023-02-28T12:45:31;7.20;39.70
12926;DHT22;6529;50.566;9.774;2023-02-28T12:48:06;7.00;35.20
12926;DHT22;6529;50.566;9.774;2023-02-28T12:50:34;6.40;36.30
12926;DHT22;6529;50.566;9.774;2023-02-28T12:53:09;6.10;37.20
12926;DHT22;6529;50.566;9.774;2023-02-28T12:56:17;6.10;45.00
12926;DHT22;6529;50.566;9.774;2023-02-28T12:58:47;6.40;42.90
12926;DHT22;6529;50.566;9.774;2023-02-28T13:01:39;7.00;39.80
12926;DHT22;6529;50.566;9.774;2023-02-28T13:04:29;7.20;37.70
12926;DHT22;6529;50.566;9.774;2023-02-28T13:09:35;7.30;31.80
12926;DHT22;6529;50.566;9.774;2023-02-28T13:12:13;7.20;36.30
12926;DHT22;6529;50.566;9.774;2023-02-28T13:14:39;7.60;34.30
12926;DHT22;6529;50.566;9.774;2023-02-28T13:22:05;6.70;36.20
12926;DHT22;6529;50.566;9.774;2023-02-28T13:24:49;6.90;41.00
12926;DHT22;6529;50.566;9.774;2023-02-28T13:29:42;7.00;33.30
12926;DHT22;6529;50.566;9.774;2023-02-28T13:47:31;7.00;33.00
12926;DHT22;6529;50.566;9.774;2023-02-28T13:50:22;7.20;32.10
12926;DHT22;6529;50.566;9.774;2023-02-28T13:58:48;7.80;25.80
12926;DHT22;6529;50.566;9.774;2023-02-28T14:06:38;7.60;32.70
12926;DHT22;6529;50.566;9.774;2023-02-28T14:09:19;8.10;27.70
12926;DHT22;6529;50.566;9.774;2023-02-28T14:11:46;8.20;27.30
12926;DHT22;6529;50.566;9.774;2023-02-28T14:17:05;8.50;23.30
12926;DHT22;6529;50.566;9.774;2023-02-28T14:19:32;7.90;24.00
12926;DHT22;6529;50.566;9.774;2023-02-28T14:31:06;7.40;37.20
12926;DHT22;6529;50.566;9.774;2023-02-28T14:36:35;7.40;31.30
12926;DHT22;6529;50.566;9.774;2023-02-28T14:39:07;7.70;32.20
12926;DHT22;6529;50.566;9.774;2023-02-28T14:41:38;7.80;28.80
12926;DHT22;6529;50.566;9.774;2023-02-28T14:44:24;7.20;29.40
12926;DHT22;6529;50.566;9.774;2023-02-28T14:46:59;7.00;36.50
12926;DHT22;6529;50.566;9.774;2023-02-28T14:52:21;6.90;34.20
12926;DHT22;6529;50.566;9.774;2023-02-28T14:54:59;7.20;33.00
12926;DHT22;6529;50.566;9.774;2023-02-28T14:57:29;7.20;34.20
12926;DHT22;6529;50.566;9.774;2023-02-28T15:02:47;7.70;28.80
12926;DHT22;6529;50.566;9.774;2023-02-28T15:07:39;7.50;27.80
12926;DHT22;6529;50.566;9.774;2023-02-28T15:12:55;6.80;31.30
12926;DHT22;6529;50.566;9.774;2023-02-28T15:15:27;6.50;31.20
12926;DHT22;6529;50.566;9.774;2023-02-28T15:17:56;6.30;39.20
12926;DHT22;6529;50.566;9.774;2023-02-28T15:20:23;6.10;40.50
12926;DHT22;6529;50.566;9.774;2023-02-28T15:22:51;6.00;42.10
12926;DHT22;6529;50.566;9.774;2023-02-28T15:25:20;6.00;44.60
12926;DHT22;6529;50.566;9.774;2023-02-28T15:27:52;5.80;43.00
12926;DHT22;6529;50.566;9.774;2023-02-28T15:30:26;5.50;45.30
12926;DHT22;6529;50.566;9.774;2023-02-28T15:35:33;4.90;50.90
12926;DHT22;6529;50.566;9.774;2023-02-28T15:40:46;4.80;54.00
12926;DHT22;6529;50.566;9.774;2023-02-28T15:43:37;4.80;56.10
12926;DHT22;6529;50.566;9.774;2023-02-28T15:46:12;4.80;58.60
12926;DHT22;6529;50.566;9.774;2023-02-28T15:48:54;4.70;59.90
12926;DHT22;6529;50.566;9.774;2023-02-28T15:51:33;4.60;57.90
12926;DHT22;6529;50.566;9.774;2023-02-28T15:54:02;4.30;62.40
12926;DHT22;6529;50.566;9.774;2023-02-28T15:56:53;4.40;60.80
12926;DHT22;6529;50.566;9.774;2023-02-28T15:59:23;4.40;61.40
12926;DHT22;6529;50.566;9.774;2023-02-28T16:02:32;4.30;60.60
12926;DHT22;6529;50.566;9.774;2023-02-28T16:07:44;4.60;59.80
12926;DHT22;6529;50.566;9.774;2023-02-28T16:10:11;4.70;61.40
12926;DHT22;6529;50.566;9.774;2023-02-28T16:12:40;4.50;61.20
12926;DHT22;6529;50.566;9.774;2023-02-28T16:15:21;4.40;68.30
12926;DHT22;6529;50.566;9.774;2023-02-28T16:17:47;4.30;67.70
12926;DHT22;6529;50.566;9.774;2023-02-28T16:20:22;4.20;91.80
12926;DHT22;6529;50.566;9.774;2023-02-28T16:22:47;4.30;74.40
12926;DHT22;6529;50.566;9.774;2023-02-28T16:25:18;4.00;76.70
12926;DHT22;6529;50.566;9.774;2023-02-28T16:27:47;4.20;79.10
12926;DHT22;6529;50.566;9.774;2023-02-28T16:30:21;4.10;76.70
12926;DHT22;6529;50.566;9.774;2023-02-28T16:32:48;4.00;77.20
12926;DHT22;6529;50.566;9.774;2023-02-28T16:35:14;3.90;77.80
12926;DHT22;6529;50.566;9.774;2023-02-28T16:37:40;3.50;80.80
12926;DHT22;6529;50.566;9.774;2023-02-28T16:40:08;3.40;83.80
12926;DHT22;6529;50.566;9.774;2023-02-28T16:42:37;3.30;86.10
12926;DHT22;6529;50.566;9.774;2023-02-28T16:45:03;3.20;87.80
12926;DHT22;6529;50.566;9.774;2023-02-28T16:47:29;3.20;90.40
12926;DHT22;6529;50.566;9.774;2023-02-28T16:49:57;3.10;90.40
12926;DHT22;6529;50.566;9.774;2023-02-28T16:52:22;3.10;90.70
12926;DHT22;6529;50.566;9.774;2023-02-28T16:54:48;3.10;92.10
12926;DHT22;6529;50.566;9.774;2023-02-28T16:57:23;3.00;92.80
12926;DHT22;6529;50.566;9.774;2023-02-28T16:59:49;3.10;92.10
12926;DHT22;6529;50.566;9.774;2023-02-28T17:02:19;3.00;92.40
12926;DHT22;6529;50.566;9.774;2023-02-28T17:04:45;3.00;93.40
12926;DHT22;6529;50.566;9.774;2023-02-28T17:07:12;3.00;93.30
12926;DHT22;6529;50.566;9.774;2023-02-28T17:09:39;2.80;94.10
12926;DHT22;6529;50.566;9.774;2023-02-28T17:12:05;2.60;95.60
12926;DHT22;6529;50.566;9.774;2023-02-28T17:14:31;2.50;96.30
12926;DHT22;6529;50.566;9.774;2023-02-28T17:16:56;2.40;98.60
12926;DHT22;6529;50.566;9.774;2023-02-28T17:19:22;2.30;97.90
12926;DHT22;6529;50.566;9.774;2023-02-28T17:21:47;2.30;99.90
12926;DHT22;6529;50.566;9.774;2023-02-28T17:24:13;2.30;99.90
12926;DHT22;6529;50.566;9.774;2023-02-28T17:26:40;2.40;99.90
12926;DHT22;6529;50.566;9.774;2023-02-28T17:29:19;2.40;99.90
12926;DHT22;6529;50.566;9.774;2023-02-28T17:31:45;2.40;99.90
12926;DHT22;6529;50.566;9.774;2023-02-28T17:34:11;2.40;99.90
12926;DHT22;6529;50.566;9.774;2023-02-28T17:36:37;2.40;99.90
12926;DHT22;6529;50.566;9.774;2023-02-28T17:39:04;2.30;99.90
12926;DHT22;6529;50.566;9.774;2023-02-28T17:41:34;2.30;99.90
12926;DHT22;6529;50.566;9.774;2023-02-28T17:43:59;2.20;99.90
12926;DHT22;6529;50.566;9.774;2023-02-28T17:46:25;2.20;99.90
12926;DHT22;6529;50.566;9.774;2023-02-28T17:48:52;2.10;99.90
12926;DHT22;6529;50.566;9.774;2023-02-28T17:51:20;2.10;99.90
12926;DHT22;6529;50.566;9.774;2023-02-28T17:53:47;2.10;99.90
12926;DHT22;6529;50.566;9.774;2023-02-28T17:56:19;2.10;99.90
12926;DHT22;6529;50.566;9.774;2023-02-28T17:58:45;2.00;99.90
12926;DHT22;6529;50.566;9.774;2023-02-28T18:01:11;2.00;99.90
12926;DHT22;6529;50.566;9.774;2023-02-28T18:03:37;1.90;99.90
12926;DHT22;6529;50.566;9.774;2023-02-28T18:06:03;1.90;99.90
12926;DHT22;6529;50.566;9.774;2023-02-28T18:08:29;1.90;99.90
12926;DHT22;6529;50.566;9.774;2023-02-28T18:10:54;1.80;99.90
12926;DHT22;6529;50.566;9.774;2023-02-28T18:13:20;1.80;99.90
12926;DHT22;6529;50.566;9.774;2023-02-28T18:15:45;1.70;99.90
12926;DHT22;6529;50.566;9.774;2023-02-28T18:18:12;1.80;99.90
12926;DHT22;6529;50.566;9.774;2023-02-28T18:20:38;1.70;99.90
12926;DHT22;6529;50.566;9.774;2023-02-28T18:23:03;1.60;99.90
12926;DHT22;6529;50.566;9.774;2023-02-28T18:25:29;1.60;99.90
12926;DHT22;6529;50.566;9.774;2023-02-28T18:27:54;1.60;99.90
12926;DHT22;6529;50.566;9.774;2023-02-28T18:30:29;1.50;99.90
12926;DHT22;6529;50.566;9.774;2023-02-28T18:32:59;1.40;99.90
12926;DHT22;6529;50.566;9.774;2023-02-28T18:35:25;1.30;99.90
12926;DHT22;6529;50.566;9.774;2023-02-28T18:38:08;1.40;99.90
12926;DHT22;6529;50.566;9.774;2023-02-28T18:40:35;1.30;99.90
12926;DHT22;6529;50.566;9.774;2023-02-28T18:43:01;1.30;99.90
12926;DHT22;6529;50.566;9.774;2023-02-28T18:45:28;1.30;99.90
12926;DHT22;6529;50.566;9.774;2023-02-28T18:47:54;1.30;99.90